sensor_id;sensor_type;location;lat;lon;timestamp;P1;durP1;ratioP1;P2;durP2;ratioP2
15285;SDS011;7744;52.172;10.668;2023-06-22T00:00:54;13.27;;;12.05;;
15285;SDS011;7744;52.172;10.668;2023-06-22T00:03:20;12.57;;;11.48;;
15285;SDS011;7744;52.172;10.668;2023-06-22T00:05:47;13.73;;;12.43;;
15285;SDS011;7744;52.172;10.668;2023-06-22T00:08:13;12.30;;;11.13;;
15285;SDS011;7744;52.172;10.668;2023-06-22T00:10:40;12.48;;;11.48;;
15285;SDS011;7744;52.172;10.668;2023-06-22T00:13:06;13.05;;;11.60;;
15285;SDS011;7744;52.172;10.668;2023-06-22T00:15:33;12.65;;;11.55;;
15285;SDS011;7744;52.172;10.668;2023-06-22T00:17:59;12.38;;;11.27;;
15285;SDS011;7744;52.172;10.668;2023-06-22T00:20:25;13.13;;;12.02;;
15285;SDS011;7744;52.172;10.668;2023-06-22T00:22:55;13.60;;;12.23;;
15285;SDS011;7744;52.172;10.668;2023-06-22T00:25:21;13.20;;;11.90;;
15285;SDS011;7744;52.172;10.668;2023-06-22T00:27:52;14.18;;;12.15;;
15285;SDS011;7744;52.172;10.668;2023-06-22T00:30:18;12.88;;;11.65;;
15285;SDS011;7744;52.172;10.668;2023-06-22T00:32:44;12.40;;;11.35;;
15285;SDS011;7744;52.172;10.668;2023-06-22T00:35:11;13.43;;;11.98;;
15285;SDS011;7744;52.172;10.668;2023-06-22T00:37:38;13.60;;;12.40;;
15285;SDS011;7744;52.172;10.668;2023-06-22T00:40:07;12.48;;;11.35;;
15285;SDS011;7744;52.172;10.668;2023-06-22T00:42:36;12.93;;;11.73;;
15285;SDS011;7744;52.172;10.668;2023-06-22T00:45:02;14.07;;;12.68;;
15285;SDS011;7744;52.172;10.668;2023-06-22T00:47:28;12.40;;;11.30;;
15285;SDS011;7744;52.172;10.668;2023-06-22T00:49:53;13.30;;;12.00;;
15285;SDS011;7744;52.172;10.668;2023-06-22T00:52:20;12.52;;;11.23;;
15285;SDS011;7744;52.172;10.668;2023-06-22T00:54:52;12.40;;;11.20;;
15285;SDS011;7744;52.172;10.668;2023-06-22T00:57:18;11.75;;;10.75;;
15285;SDS011;7744;52.172;10.668;2023-06-22T00:59:45;13.73;;;12.32;;
15285;SDS011;7744;52.172;10.668;2023-06-22T01:02:12;12.00;;;11.00;;
15285;SDS011;7744;52.172;10.668;2023-06-22T01:04:38;13.25;;;12.00;;
15285;SDS011;7744;52.172;10.668;2023-06-22T01:12:34;11.82;;;10.73;;
15285;SDS011;7744;52.172;10.668;2023-06-22T01:15:10;11.75;;;10.63;;
15285;SDS011;7744;52.172;10.668;2023-06-22T01:17:40;12.57;;;11.35;;
15285;SDS011;7744;52.172;10.668;2023-06-22T01:20:08;12.18;;;11.07;;
15285;SDS011;7744;52.172;10.668;2023-06-22T01:22:42;11.60;;;10.45;;
15285;SDS011;7744;52.172;10.668;2023-06-22T01:31:08;12.20;;;10.95;;
15285;SDS011;7744;52.172;10.668;2023-06-22T01:33:37;14.45;;;11.77;;
15285;SDS011;7744;52.172;10.668;2023-06-22T01:36:04;12.98;;;11.68;;
15285;SDS011;7744;52.172;10.668;2023-06-22T01:38:31;14.40;;;11.18;;
15285;SDS011;7744;52.172;10.668;2023-06-22T01:40:59;13.30;;;10.45;;
15285;SDS011;7744;52.172;10.668;2023-06-22T01:43:26;15.55;;;11.13;;
15285;SDS011;7744;52.172;10.668;2023-06-22T01:45:53;11.35;;;10.23;;
15285;SDS011;7744;52.172;10.668;2023-06-22T01:48:20;15.18;;;11.02;;
15285;SDS011;7744;52.172;10.668;2023-06-22T01:50:47;14.93;;;10.23;;
15285;SDS011;7744;52.172;10.668;2023-06-22T01:53:13;16.60;;;11.40;;
15285;SDS011;7744;52.172;10.668;2023-06-22T01:55:39;15.77;;;11.55;;
15285;SDS011;7744;52.172;10.668;2023-06-22T01:58:04;18.88;;;11.70;;
15285;SDS011;7744;52.172;10.668;2023-06-22T02:00:34;20.40;;;11.60;;
15285;SDS011;7744;52.172;10.668;2023-06-22T02:03:26;17.38;;;11.98;;
15285;SDS011;7744;52.172;10.668;2023-06-22T02:05:58;21.17;;;11.68;;
15285;SDS011;7744;52.172;10.668;2023-06-22T02:08:29;18.83;;;11.82;;
15285;SDS011;7744;52.172;10.668;2023-06-22T02:11:00;14.93;;;11.63;;
15285;SDS011;7744;52.172;10.668;2023-06-22T02:13:27;14.82;;;11.65;;
15285;SDS011;7744;52.172;10.668;2023-06-22T02:15:53;18.70;;;11.52;;
15285;SDS011;7744;52.172;10.668;2023-06-22T02:18:19;14.13;;;10.45;;
15285;SDS011;7744;52.172;10.668;2023-06-22T02:20:45;22.25;;;11.48;;
15285;SDS011;7744;52.172;10.668;2023-06-22T02:23:11;16.13;;;11.27;;
15285;SDS011;7744;52.172;10.668;2023-06-22T02:25:36;15.27;;;10.60;;
15285;SDS011;7744;52.172;10.668;2023-06-22T02:28:02;17.75;;;10.68;;
15285;SDS011;7744;52.172;10.668;2023-06-22T02:30:28;16.27;;;10.77;;
15285;SDS011;7744;52.172;10.668;2023-06-22T02:32:54;17.25;;;11.68;;
15285;SDS011;7744;52.172;10.668;2023-06-22T02:35:25;18.05;;;12.00;;
15285;SDS011;7744;52.172;10.668;2023-06-22T02:37:51;18.98;;;12.52;;
15285;SDS011;7744;52.172;10.668;2023-06-22T02:40:17;19.27;;;11.88;;
15285;SDS011;7744;52.172;10.668;2023-06-22T02:42:42;18.42;;;11.95;;
15285;SDS011;7744;52.172;10.668;2023-06-22T02:45:08;14.73;;;11.07;;
15285;SDS011;7744;52.172;10.668;2023-06-22T02:47:34;14.82;;;11.50;;
15285;SDS011;7744;52.172;10.668;2023-06-22T02:50:00;17.35;;;12.13;;
15285;SDS011;7744;52.172;10.668;2023-06-22T02:52:26;15.93;;;11.38;;
15285;SDS011;7744;52.172;10.668;2023-06-22T02:54:51;12.88;;;10.90;;
15285;SDS011;7744;52.172;10.668;2023-06-22T02:57:17;12.43;;;11.15;;
15285;SDS011;7744;52.172;10.668;2023-06-22T02:59:43;12.73;;;11.43;;
15285;SDS011;7744;52.172;10.668;2023-06-22T03:02:08;18.08;;;11.95;;
15285;SDS011;7744;52.172;10.668;2023-06-22T03:04:35;16.08;;;11.77;;
15285;SDS011;7744;52.172;10.668;2023-06-22T03:07:00;16.65;;;12.20;;
15285;SDS011;7744;52.172;10.668;2023-06-22T03:09:26;15.85;;;11.60;;
15285;SDS011;7744;52.172;10.668;2023-06-22T03:11:53;21.27;;;12.55;;
15285;SDS011;7744;52.172;10.668;2023-06-22T03:14:20;18.88;;;12.30;;
15285;SDS011;7744;52.172;10.668;2023-06-22T03:16:45;19.48;;;12.35;;
15285;SDS011;7744;52.172;10.668;2023-06-22T03:19:11;15.18;;;10.07;;
15285;SDS011;7744;52.172;10.668;2023-06-22T03:21:37;18.42;;;11.70;;
15285;SDS011;7744;52.172;10.668;2023-06-22T03:24:06;17.95;;;11.10;;
15285;SDS011;7744;52.172;10.668;2023-06-22T03:26:32;17.20;;;11.73;;
15285;SDS011;7744;52.172;10.668;2023-06-22T03:28:59;15.43;;;10.98;;
15285;SDS011;7744;52.172;10.668;2023-06-22T03:31:25;15.82;;;11.20;;
15285;SDS011;7744;52.172;10.668;2023-06-22T03:33:51;15.80;;;10.90;;
15285;SDS011;7744;52.172;10.668;2023-06-22T03:36:17;16.98;;;11.20;;
15285;SDS011;7744;52.172;10.668;2023-06-22T03:38:47;14.38;;;10.98;;
15285;SDS011;7744;52.172;10.668;2023-06-22T03:41:13;13.02;;;11.35;;
15285;SDS011;7744;52.172;10.668;2023-06-22T03:43:39;14.65;;;11.52;;
15285;SDS011;7744;52.172;10.668;2023-06-22T03:46:04;12.65;;;10.52;;
15285;SDS011;7744;52.172;10.668;2023-06-22T03:48:31;17.23;;;10.07;;
15285;SDS011;7744;52.172;10.668;2023-06-22T03:50:56;12.70;;;10.70;;
15285;SDS011;7744;52.172;10.668;2023-06-22T03:53:23;15.07;;;10.05;;
15285;SDS011;7744;52.172;10.668;2023-06-22T03:55:50;14.18;;;9.25;;
15285;SDS011;7744;52.172;10.668;2023-06-22T03:58:16;10.38;;;9.05;;
15285;SDS011;7744;52.172;10.668;2023-06-22T04:00:44;15.40;;;10.90;;
15285;SDS011;7744;52.172;10.668;2023-06-22T04:03:13;15.48;;;9.88;;
15285;SDS011;7744;52.172;10.668;2023-06-22T04:05:40;13.25;;;9.65;;
15285;SDS011;7744;52.172;10.668;2023-06-22T04:08:06;15.45;;;10.15;;
15285;SDS011;7744;52.172;10.668;2023-06-22T04:10:31;15.02;;;10.18;;
15285;SDS011;7744;52.172;10.668;2023-06-22T04:12:57;13.30;;;9.73;;
15285;SDS011;7744;52.172;10.668;2023-06-22T04:15:23;12.80;;;10.02;;
15285;SDS011;7744;52.172;10.668;2023-06-22T04:17:48;13.40;;;9.55;;
15285;SDS011;7744;52.172;10.668;2023-06-22T04:20:14;12.40;;;10.20;;
15285;SDS011;7744;52.172;10.668;2023-06-22T04:22:39;10.38;;;9.27;;
15285;SDS011;7744;52.172;10.668;2023-06-22T04:25:05;10.65;;;9.63;;
15285;SDS011;7744;52.172;10.668;2023-06-22T04:27:32;12.05;;;10.77;;
15285;SDS011;7744;52.172;10.668;2023-06-22T04:30:02;15.23;;;10.50;;
15285;SDS011;7744;52.172;10.668;2023-06-22T04:32:29;11.00;;;9.85;;
15285;SDS011;7744;52.172;10.668;2023-06-22T04:34:54;10.65;;;9.55;;
15285;SDS011;7744;52.172;10.668;2023-06-22T04:37:20;11.95;;;10.10;;
15285;SDS011;7744;52.172;10.668;2023-06-22T04:39:48;12.05;;;9.90;;
15285;SDS011;7744;52.172;10.668;2023-06-22T04:42:15;11.65;;;9.93;;
15285;SDS011;7744;52.172;10.668;2023-06-22T04:44:40;12.65;;;9.43;;
15285;SDS011;7744;52.172;10.668;2023-06-22T04:47:07;12.23;;;9.98;;
15285;SDS011;7744;52.172;10.668;2023-06-22T04:49:36;11.43;;;10.25;;
15285;SDS011;7744;52.172;10.668;2023-06-22T04:54:28;11.40;;;9.90;;
15285;SDS011;7744;52.172;10.668;2023-06-22T04:56:54;13.48;;;10.48;;
15285;SDS011;7744;52.172;10.668;2023-06-22T04:59:23;10.88;;;9.45;;
15285;SDS011;7744;52.172;10.668;2023-06-22T05:01:56;13.38;;;10.68;;
15285;SDS011;7744;52.172;10.668;2023-06-22T05:04:23;12.52;;;10.73;;
15285;SDS011;7744;52.172;10.668;2023-06-22T05:06:50;12.00;;;9.95;;
15285;SDS011;7744;52.172;10.668;2023-06-22T05:09:15;12.93;;;10.65;;
15285;SDS011;7744;52.172;10.668;2023-06-22T05:11:42;11.73;;;10.52;;
15285;SDS011;7744;52.172;10.668;2023-06-22T05:14:08;13.10;;;10.80;;
15285;SDS011;7744;52.172;10.668;2023-06-22T05:16:34;12.63;;;11.15;;
15285;SDS011;7744;52.172;10.668;2023-06-22T05:18:59;11.38;;;10.30;;
15285;SDS011;7744;52.172;10.668;2023-06-22T05:21:28;11.48;;;10.35;;
15285;SDS011;7744;52.172;10.668;2023-06-22T05:23:53;12.10;;;10.85;;
15285;SDS011;7744;52.172;10.668;2023-06-22T05:26:20;11.20;;;10.10;;
15285;SDS011;7744;52.172;10.668;2023-06-22T05:28:46;10.20;;;9.20;;
15285;SDS011;7744;52.172;10.668;2023-06-22T05:31:13;10.82;;;9.73;;
15285;SDS011;7744;52.172;10.668;2023-06-22T05:33:41;10.98;;;9.95;;
15285;SDS011;7744;52.172;10.668;2023-06-22T05:36:08;10.55;;;9.52;;
15285;SDS011;7744;52.172;10.668;2023-06-22T05:38:35;10.00;;;9.00;;
15285;SDS011;7744;52.172;10.668;2023-06-22T05:41:01;10.95;;;9.48;;
15285;SDS011;7744;52.172;10.668;2023-06-22T05:43:26;9.75;;;8.80;;
15285;SDS011;7744;52.172;10.668;2023-06-22T05:45:52;10.07;;;9.18;;
15285;SDS011;7744;52.172;10.668;2023-06-22T05:48:18;12.20;;;9.68;;
15285;SDS011;7744;52.172;10.668;2023-06-22T05:50:43;10.88;;;9.77;;
15285;SDS011;7744;52.172;10.668;2023-06-22T05:53:09;10.45;;;9.65;;
15285;SDS011;7744;52.172;10.668;2023-06-22T05:55:37;10.57;;;9.68;;
15285;SDS011;7744;52.172;10.668;2023-06-22T05:58:14;10.50;;;9.40;;
15285;SDS011;7744;52.172;10.668;2023-06-22T06:00:40;10.18;;;9.07;;
15285;SDS011;7744;52.172;10.668;2023-06-22T06:03:08;10.73;;;8.52;;
15285;SDS011;7744;52.172;10.668;2023-06-22T06:05:34;9.65;;;8.75;;
15285;SDS011;7744;52.172;10.668;2023-06-22T06:08:00;9.00;;;8.20;;
15285;SDS011;7744;52.172;10.668;2023-06-22T06:10:27;10.05;;;9.02;;
15285;SDS011;7744;52.172;10.668;2023-06-22T06:13:02;9.68;;;8.68;;
15285;SDS011;7744;52.172;10.668;2023-06-22T06:15:34;9.32;;;8.43;;
15285;SDS011;7744;52.172;10.668;2023-06-22T06:17:59;9.55;;;8.55;;
15285;SDS011;7744;52.172;10.668;2023-06-22T06:20:26;9.57;;;8.63;;
15285;SDS011;7744;52.172;10.668;2023-06-22T06:23:18;9.52;;;8.55;;
15285;SDS011;7744;52.172;10.668;2023-06-22T06:25:44;9.98;;;9.02;;
15285;SDS011;7744;52.172;10.668;2023-06-22T06:28:10;9.88;;;8.20;;
15285;SDS011;7744;52.172;10.668;2023-06-22T06:30:35;10.00;;;7.97;;
15285;SDS011;7744;52.172;10.668;2023-06-22T06:33:02;8.40;;;7.70;;
15285;SDS011;7744;52.172;10.668;2023-06-22T06:35:29;8.90;;;8.20;;
15285;SDS011;7744;52.172;10.668;2023-06-22T06:38:02;10.88;;;9.77;;
15285;SDS011;7744;52.172;10.668;2023-06-22T06:40:28;9.60;;;8.80;;
15285;SDS011;7744;52.172;10.668;2023-06-22T06:42:54;9.75;;;8.85;;
15285;SDS011;7744;52.172;10.668;2023-06-22T06:45:20;9.85;;;8.88;;
15285;SDS011;7744;52.172;10.668;2023-06-22T06:47:47;9.52;;;8.65;;
15285;SDS011;7744;52.172;10.668;2023-06-22T06:50:30;9.95;;;9.05;;
15285;SDS011;7744;52.172;10.668;2023-06-22T06:53:01;9.68;;;8.48;;
15285;SDS011;7744;52.172;10.668;2023-06-22T06:55:26;9.38;;;8.57;;
15285;SDS011;7744;52.172;10.668;2023-06-22T06:57:53;8.85;;;8.15;;
15285;SDS011;7744;52.172;10.668;2023-06-22T07:00:19;9.60;;;8.70;;
15285;SDS011;7744;52.172;10.668;2023-06-22T07:02:46;9.10;;;8.40;;
15285;SDS011;7744;52.172;10.668;2023-06-22T07:05:13;9.13;;;8.32;;
15285;SDS011;7744;52.172;10.668;2023-06-22T07:07:39;9.68;;;8.88;;
15285;SDS011;7744;52.172;10.668;2023-06-22T07:10:06;10.98;;;10.07;;
15285;SDS011;7744;52.172;10.668;2023-06-22T07:12:32;9.10;;;8.27;;
15285;SDS011;7744;52.172;10.668;2023-06-22T07:15:05;10.02;;;9.23;;
15285;SDS011;7744;52.172;10.668;2023-06-22T07:17:35;10.43;;;9.52;;
15285;SDS011;7744;52.172;10.668;2023-06-22T07:20:02;9.73;;;8.82;;
15285;SDS011;7744;52.172;10.668;2023-06-22T07:22:32;10.13;;;9.32;;
15285;SDS011;7744;52.172;10.668;2023-06-22T07:24:58;10.73;;;9.82;;
15285;SDS011;7744;52.172;10.668;2023-06-22T07:27:23;9.88;;;9.07;;
15285;SDS011;7744;52.172;10.668;2023-06-22T07:29:49;10.15;;;9.27;;
15285;SDS011;7744;52.172;10.668;2023-06-22T07:32:15;10.20;;;9.30;;
15285;SDS011;7744;52.172;10.668;2023-06-22T07:34:41;10.80;;;9.80;;
15285;SDS011;7744;52.172;10.668;2023-06-22T07:37:06;9.98;;;9.07;;
15285;SDS011;7744;52.172;10.668;2023-06-22T07:39:32;9.93;;;9.05;;
15285;SDS011;7744;52.172;10.668;2023-06-22T07:41:58;10.13;;;9.32;;
15285;SDS011;7744;52.172;10.668;2023-06-22T07:44:23;10.23;;;9.10;;
15285;SDS011;7744;52.172;10.668;2023-06-22T07:46:49;10.80;;;10.00;;
15285;SDS011;7744;52.172;10.668;2023-06-22T07:49:15;11.15;;;10.25;;
15285;SDS011;7744;52.172;10.668;2023-06-22T07:51:42;10.10;;;9.30;;
15285;SDS011;7744;52.172;10.668;2023-06-22T07:54:08;10.88;;;10.07;;
15285;SDS011;7744;52.172;10.668;2023-06-22T07:56:35;12.60;;;11.55;;
15285;SDS011;7744;52.172;10.668;2023-06-22T07:59:01;12.45;;;11.30;;
15285;SDS011;7744;52.172;10.668;2023-06-22T08:01:29;13.48;;;12.30;;
15285;SDS011;7744;52.172;10.668;2023-06-22T08:03:56;14.15;;;12.85;;
15285;SDS011;7744;52.172;10.668;2023-06-22T08:06:21;13.75;;;12.60;;
15285;SDS011;7744;52.172;10.668;2023-06-22T08:08:47;13.82;;;12.57;;
15285;SDS011;7744;52.172;10.668;2023-06-22T08:11:14;13.98;;;12.63;;
15285;SDS011;7744;52.172;10.668;2023-06-22T08:13:39;13.98;;;12.65;;
15285;SDS011;7744;52.172;10.668;2023-06-22T08:16:05;14.32;;;13.13;;
15285;SDS011;7744;52.172;10.668;2023-06-22T08:18:32;16.17;;;14.80;;
15285;SDS011;7744;52.172;10.668;2023-06-22T08:20:58;15.40;;;13.95;;
15285;SDS011;7744;52.172;10.668;2023-06-22T08:23:24;15.63;;;14.18;;
15285;SDS011;7744;52.172;10.668;2023-06-22T08:29:28;15.63;;;14.32;;
15285;SDS011;7744;52.172;10.668;2023-06-22T08:38:03;16.00;;;14.70;;
15285;SDS011;7744;52.172;10.668;2023-06-22T08:40:29;15.00;;;13.80;;
15285;SDS011;7744;52.172;10.668;2023-06-22T08:42:54;17.15;;;15.57;;
15285;SDS011;7744;52.172;10.668;2023-06-22T08:45:20;15.52;;;14.23;;
15285;SDS011;7744;52.172;10.668;2023-06-22T08:47:46;17.08;;;15.68;;
15285;SDS011;7744;52.172;10.668;2023-06-22T08:50:12;17.35;;;15.75;;
15285;SDS011;7744;52.172;10.668;2023-06-22T08:52:38;15.88;;;14.55;;
15285;SDS011;7744;52.172;10.668;2023-06-22T08:55:09;16.38;;;15.07;;
15285;SDS011;7744;52.172;10.668;2023-06-22T08:57:35;16.95;;;15.57;;
15285;SDS011;7744;52.172;10.668;2023-06-22T09:00:05;15.23;;;14.02;;
15285;SDS011;7744;52.172;10.668;2023-06-22T09:02:36;16.00;;;14.70;;
15285;SDS011;7744;52.172;10.668;2023-06-22T09:05:02;14.98;;;13.75;;
15285;SDS011;7744;52.172;10.668;2023-06-22T09:07:28;16.00;;;14.60;;
15285;SDS011;7744;52.172;10.668;2023-06-22T09:09:54;15.73;;;14.55;;
15285;SDS011;7744;52.172;10.668;2023-06-22T09:12:20;15.63;;;14.43;;
15285;SDS011;7744;52.172;10.668;2023-06-22T09:14:49;15.43;;;14.20;;
15285;SDS011;7744;52.172;10.668;2023-06-22T09:17:15;14.65;;;13.45;;
15285;SDS011;7744;52.172;10.668;2023-06-22T09:19:40;14.57;;;13.48;;
15285;SDS011;7744;52.172;10.668;2023-06-22T09:22:06;15.85;;;14.63;;
15285;SDS011;7744;52.172;10.668;2023-06-22T09:24:32;15.95;;;14.68;;
15285;SDS011;7744;52.172;10.668;2023-06-22T09:26:58;15.30;;;14.07;;
15285;SDS011;7744;52.172;10.668;2023-06-22T09:29:24;14.88;;;13.57;;
15285;SDS011;7744;52.172;10.668;2023-06-22T09:31:50;14.90;;;13.60;;
15285;SDS011;7744;52.172;10.668;2023-06-22T09:34:18;15.10;;;13.82;;
15285;SDS011;7744;52.172;10.668;2023-06-22T09:36:46;15.35;;;14.05;;
15285;SDS011;7744;52.172;10.668;2023-06-22T09:39:14;15.00;;;13.77;;
15285;SDS011;7744;52.172;10.668;2023-06-22T09:41:40;15.30;;;14.07;;
15285;SDS011;7744;52.172;10.668;2023-06-22T09:44:06;14.35;;;13.25;;
15285;SDS011;7744;52.172;10.668;2023-06-22T09:46:31;14.80;;;13.50;;
15285;SDS011;7744;52.172;10.668;2023-06-22T09:48:57;15.82;;;14.52;;
15285;SDS011;7744;52.172;10.668;2023-06-22T09:51:23;16.33;;;14.93;;
15285;SDS011;7744;52.172;10.668;2023-06-22T09:53:51;14.95;;;13.85;;
15285;SDS011;7744;52.172;10.668;2023-06-22T09:56:19;17.60;;;15.30;;
15285;SDS011;7744;52.172;10.668;2023-06-22T09:58:45;16.60;;;15.10;;
15285;SDS011;7744;52.172;10.668;2023-06-22T10:01:15;15.93;;;14.63;;
15285;SDS011;7744;52.172;10.668;2023-06-22T10:03:40;15.05;;;13.85;;
15285;SDS011;7744;52.172;10.668;2023-06-22T10:06:09;15.50;;;14.00;;
15285;SDS011;7744;52.172;10.668;2023-06-22T10:08:34;13.90;;;12.48;;
15285;SDS011;7744;52.172;10.668;2023-06-22T10:11:00;15.23;;;13.75;;
15285;SDS011;7744;52.172;10.668;2023-06-22T10:13:26;14.15;;;13.05;;
15285;SDS011;7744;52.172;10.668;2023-06-22T10:15:52;14.57;;;13.48;;
15285;SDS011;7744;52.172;10.668;2023-06-22T10:18:18;15.00;;;13.90;;
15285;SDS011;7744;52.172;10.668;2023-06-22T10:20:46;15.30;;;13.93;;
15285;SDS011;7744;52.172;10.668;2023-06-22T10:23:13;14.60;;;13.27;;
15285;SDS011;7744;52.172;10.668;2023-06-22T10:25:38;12.90;;;11.90;;
15285;SDS011;7744;52.172;10.668;2023-06-22T10:28:04;12.85;;;11.85;;
15285;SDS011;7744;52.172;10.668;2023-06-22T10:30:29;13.23;;;12.23;;
15285;SDS011;7744;52.172;10.668;2023-06-22T10:32:55;12.95;;;11.75;;
15285;SDS011;7744;52.172;10.668;2023-06-22T10:35:21;13.23;;;12.13;;
15285;SDS011;7744;52.172;10.668;2023-06-22T10:37:46;13.43;;;12.23;;
15285;SDS011;7744;52.172;10.668;2023-06-22T10:40:12;13.77;;;12.50;;
15285;SDS011;7744;52.172;10.668;2023-06-22T10:42:40;13.25;;;12.18;;
15285;SDS011;7744;52.172;10.668;2023-06-22T10:45:06;13.20;;;11.98;;
15285;SDS011;7744;52.172;10.668;2023-06-22T10:47:33;12.52;;;11.52;;
15285;SDS011;7744;52.172;10.668;2023-06-22T10:49:59;12.35;;;11.45;;
15285;SDS011;7744;52.172;10.668;2023-06-22T10:52:24;13.25;;;12.18;;
15285;SDS011;7744;52.172;10.668;2023-06-22T10:54:50;13.48;;;12.38;;
15285;SDS011;7744;52.172;10.668;2023-06-22T10:57:17;12.20;;;11.27;;
15285;SDS011;7744;52.172;10.668;2023-06-22T10:59:43;13.00;;;11.73;;
15285;SDS011;7744;52.172;10.668;2023-06-22T11:02:09;11.90;;;11.00;;
15285;SDS011;7744;52.172;10.668;2023-06-22T11:04:34;11.82;;;10.95;;
15285;SDS011;7744;52.172;10.668;2023-06-22T11:07:00;12.55;;;11.48;;
15285;SDS011;7744;52.172;10.668;2023-06-22T11:09:26;11.80;;;10.85;;
15285;SDS011;7744;52.172;10.668;2023-06-22T11:11:52;11.68;;;10.57;;
15285;SDS011;7744;52.172;10.668;2023-06-22T11:14:21;11.52;;;10.63;;
15285;SDS011;7744;52.172;10.668;2023-06-22T11:16:47;10.88;;;9.90;;
15285;SDS011;7744;52.172;10.668;2023-06-22T11:19:12;10.18;;;9.38;;
15285;SDS011;7744;52.172;10.668;2023-06-22T11:21:38;10.95;;;9.95;;
15285;SDS011;7744;52.172;10.668;2023-06-22T11:24:04;11.80;;;10.70;;
15285;SDS011;7744;52.172;10.668;2023-06-22T11:26:30;10.68;;;9.77;;
15285;SDS011;7744;52.172;10.668;2023-06-22T11:28:56;11.63;;;10.25;;
15285;SDS011;7744;52.172;10.668;2023-06-22T11:31:23;11.02;;;10.02;;
15285;SDS011;7744;52.172;10.668;2023-06-22T11:33:49;10.82;;;10.02;;
15285;SDS011;7744;52.172;10.668;2023-06-22T11:36:14;10.93;;;10.13;;
15285;SDS011;7744;52.172;10.668;2023-06-22T11:38:40;10.80;;;9.90;;
15285;SDS011;7744;52.172;10.668;2023-06-22T11:41:07;11.40;;;10.50;;
15285;SDS011;7744;52.172;10.668;2023-06-22T11:43:33;12.07;;;10.98;;
15285;SDS011;7744;52.172;10.668;2023-06-22T11:46:00;11.70;;;10.90;;
15285;SDS011;7744;52.172;10.668;2023-06-22T11:48:27;11.82;;;10.93;;
15285;SDS011;7744;52.172;10.668;2023-06-22T11:50:53;11.27;;;10.35;;
15285;SDS011;7744;52.172;10.668;2023-06-22T11:53:20;10.80;;;10.00;;
15285;SDS011;7744;52.172;10.668;2023-06-22T11:55:46;12.30;;;10.00;;
15285;SDS011;7744;52.172;10.668;2023-06-22T11:58:12;10.43;;;9.63;;
15285;SDS011;7744;52.172;10.668;2023-06-22T12:00:38;10.02;;;9.15;;
15285;SDS011;7744;52.172;10.668;2023-06-22T12:03:04;11.52;;;10.43;;
15285;SDS011;7744;52.172;10.668;2023-06-22T12:05:29;12.18;;;11.18;;
15285;SDS011;7744;52.172;10.668;2023-06-22T12:07:55;11.13;;;10.23;;
15285;SDS011;7744;52.172;10.668;2023-06-22T12:10:21;11.00;;;10.02;;
15285;SDS011;7744;52.172;10.668;2023-06-22T12:12:47;11.82;;;10.93;;
15285;SDS011;7744;52.172;10.668;2023-06-22T12:15:13;11.50;;;10.52;;
15285;SDS011;7744;52.172;10.668;2023-06-22T12:17:39;10.57;;;9.88;;
15285;SDS011;7744;52.172;10.668;2023-06-22T12:20:06;10.88;;;9.98;;
15285;SDS011;7744;52.172;10.668;2023-06-22T12:22:32;10.77;;;9.88;;
15285;SDS011;7744;52.172;10.668;2023-06-22T12:24:59;10.35;;;9.45;;
15285;SDS011;7744;52.172;10.668;2023-06-22T12:27:25;9.93;;;9.23;;
15285;SDS011;7744;52.172;10.668;2023-06-22T12:29:50;10.13;;;9.23;;
15285;SDS011;7744;52.172;10.668;2023-06-22T12:32:16;9.73;;;8.98;;
15285;SDS011;7744;52.172;10.668;2023-06-22T12:34:42;9.88;;;9.10;;
15285;SDS011;7744;52.172;10.668;2023-06-22T12:37:09;9.98;;;9.07;;
15285;SDS011;7744;52.172;10.668;2023-06-22T12:39:35;10.20;;;9.45;;
15285;SDS011;7744;52.172;10.668;2023-06-22T12:42:00;10.32;;;9.52;;
15285;SDS011;7744;52.172;10.668;2023-06-22T12:44:26;11.35;;;10.35;;
15285;SDS011;7744;52.172;10.668;2023-06-22T12:46:52;10.43;;;9.52;;
15285;SDS011;7744;52.172;10.668;2023-06-22T12:49:18;10.35;;;9.52;;
15285;SDS011;7744;52.172;10.668;2023-06-22T12:51:44;11.32;;;10.40;;
15285;SDS011;7744;52.172;10.668;2023-06-22T12:54:10;11.20;;;10.30;;
15285;SDS011;7744;52.172;10.668;2023-06-22T12:56:36;11.13;;;10.23;;
15285;SDS011;7744;52.172;10.668;2023-06-22T12:59:03;11.73;;;10.55;;
15285;SDS011;7744;52.172;10.668;2023-06-22T13:01:29;11.13;;;10.23;;
15285;SDS011;7744;52.172;10.668;2023-06-22T13:03:56;10.45;;;9.55;;
15285;SDS011;7744;52.172;10.668;2023-06-22T13:06:23;10.95;;;10.00;;
15285;SDS011;7744;52.172;10.668;2023-06-22T13:08:48;11.48;;;10.55;;
15285;SDS011;7744;52.172;10.668;2023-06-22T13:11:14;11.00;;;10.07;;
15285;SDS011;7744;52.172;10.668;2023-06-22T13:13:40;10.68;;;9.98;;
15285;SDS011;7744;52.172;10.668;2023-06-22T13:16:06;10.80;;;10.00;;
15285;SDS011;7744;52.172;10.668;2023-06-22T13:18:32;11.02;;;10.13;;
15285;SDS011;7744;52.172;10.668;2023-06-22T13:20:59;10.68;;;9.88;;
15285;SDS011;7744;52.172;10.668;2023-06-22T13:23:25;11.02;;;10.23;;
15285;SDS011;7744;52.172;10.668;2023-06-22T13:25:51;11.05;;;10.23;;
15285;SDS011;7744;52.172;10.668;2023-06-22T13:28:16;11.00;;;10.10;;
15285;SDS011;7744;52.172;10.668;2023-06-22T13:30:43;11.25;;;10.35;;
15285;SDS011;7744;52.172;10.668;2023-06-22T13:33:12;10.73;;;9.93;;
15285;SDS011;7744;52.172;10.668;2023-06-22T13:35:38;10.77;;;9.98;;
15285;SDS011;7744;52.172;10.668;2023-06-22T13:38:04;11.20;;;10.40;;
15285;SDS011;7744;52.172;10.668;2023-06-22T13:40:29;11.25;;;10.45;;
15285;SDS011;7744;52.172;10.668;2023-06-22T13:42:55;10.75;;;9.95;;
15285;SDS011;7744;52.172;10.668;2023-06-22T13:45:22;11.07;;;10.20;;
15285;SDS011;7744;52.172;10.668;2023-06-22T13:47:47;10.52;;;9.60;;
15285;SDS011;7744;52.172;10.668;2023-06-22T13:50:13;10.27;;;9.45;;
15285;SDS011;7744;52.172;10.668;2023-06-22T13:52:39;11.25;;;10.45;;
15285;SDS011;7744;52.172;10.668;2023-06-22T13:55:05;10.60;;;9.70;;
15285;SDS011;7744;52.172;10.668;2023-06-22T13:57:32;10.23;;;9.35;;
15285;SDS011;7744;52.172;10.668;2023-06-22T13:59:58;10.30;;;9.55;;
15285;SDS011;7744;52.172;10.668;2023-06-22T14:02:25;10.80;;;10.00;;
15285;SDS011;7744;52.172;10.668;2023-06-22T14:04:52;10.90;;;10.00;;
15285;SDS011;7744;52.172;10.668;2023-06-22T14:07:17;11.73;;;10.90;;
15285;SDS011;7744;52.172;10.668;2023-06-22T14:09:44;11.35;;;10.43;;
15285;SDS011;7744;52.172;10.668;2023-06-22T14:12:10;11.77;;;10.88;;
15285;SDS011;7744;52.172;10.668;2023-06-22T14:14:36;12.02;;;11.10;;
15285;SDS011;7744;52.172;10.668;2023-06-22T14:17:02;11.88;;;10.88;;
15285;SDS011;7744;52.172;10.668;2023-06-22T14:19:29;11.20;;;10.48;;
15285;SDS011;7744;52.172;10.668;2023-06-22T14:21:55;11.90;;;11.10;;
15285;SDS011;7744;52.172;10.668;2023-06-22T14:24:22;12.52;;;11.52;;
15285;SDS011;7744;52.172;10.668;2023-06-22T14:26:48;10.65;;;9.75;;
15285;SDS011;7744;52.172;10.668;2023-06-22T14:29:14;11.23;;;10.32;;
15285;SDS011;7744;52.172;10.668;2023-06-22T14:31:39;10.98;;;10.25;;
15285;SDS011;7744;52.172;10.668;2023-06-22T14:34:06;11.45;;;10.55;;
15285;SDS011;7744;52.172;10.668;2023-06-22T14:36:31;11.50;;;10.60;;
15285;SDS011;7744;52.172;10.668;2023-06-22T14:38:57;12.48;;;11.57;;
15285;SDS011;7744;52.172;10.668;2023-06-22T14:41:23;11.63;;;10.68;;
15285;SDS011;7744;52.172;10.668;2023-06-22T14:43:51;11.90;;;11.02;;
15285;SDS011;7744;52.172;10.668;2023-06-22T14:46:18;11.98;;;11.00;;